createdAt,value
2022-09-17T00:01:04.520Z,100.00
2022-09-17T00:03:33.748Z,100.00
2022-09-17T00:06:02.584Z,100.00
2022-09-17T00:08:29.915Z,100.00
2022-09-17T00:10:56.538Z,100.00
2022-09-17T00:13:23.510Z,100.00
2022-09-17T00:15:51.764Z,100.00
2022-09-17T00:18:18.713Z,100.00
2022-09-17T00:20:47.405Z,100.00
2022-09-17T00:23:14.805Z,100.00
2022-09-17T00:25:43.684Z,100.00
2022-09-17T00:28:11.381Z,100.00
2022-09-17T00:30:44.250Z,100.00
2022-09-17T00:33:16.442Z,100.00
2022-09-17T00:35:44.573Z,100.00
2022-09-17T00:38:12.073Z,100.00
2022-09-17T00:40:39.468Z,100.00
2022-09-17T00:43:12.122Z,100.00
2022-09-17T00:45:40.058Z,100.00
2022-09-17T00:48:07.033Z,100.00
2022-09-17T00:50:42.117Z,100.00
2022-09-17T00:53:12.194Z,100.00
2022-09-17T00:55:54.851Z,100.00
2022-09-17T00:58:23.435Z,100.00
2022-09-17T01:00:49.916Z,100.00
2022-09-17T01:03:16.522Z,100.00
2022-09-17T01:05:50.403Z,100.00
2022-09-17T01:08:35.679Z,100.00
2022-09-17T01:11:30.783Z,100.00
2022-09-17T01:14:11.167Z,100.00
2022-09-17T01:16:46.404Z,100.00
2022-09-17T01:19:42.717Z,100.00
2022-09-17T01:22:22.111Z,100.00
2022-09-17T01:25:14.988Z,100.00
2022-09-17T01:28:00.143Z,100.00
2022-09-17T01:30:56.726Z,100.00
2022-09-17T01:33:28.761Z,100.00
2022-09-17T01:36:30.152Z,100.00
2022-09-17T01:39:16.827Z,100.00
2022-09-17T01:42:05.583Z,100.00
2022-09-17T01:44:47.243Z,100.00
2022-09-17T01:47:22.775Z,100.00
2022-09-17T01:49:53.465Z,100.00
2022-09-17T01:52:20.648Z,100.00
2022-09-17T01:54:53.367Z,100.00
2022-09-17T01:57:24.546Z,100.00
2022-09-17T02:00:01.025Z,100.00
2022-09-17T02:02:50.032Z,100.00
2022-09-17T02:05:27.295Z,100.00
2022-09-17T02:07:58.510Z,100.00
2022-09-17T02:10:34.524Z,100.00
2022-09-17T02:13:08.455Z,100.00
2022-09-17T02:15:40.179Z,100.00
2022-09-17T02:18:15.407Z,100.00
2022-09-17T02:20:50.423Z,100.00
2022-09-17T02:23:23.762Z,100.00
2022-09-17T02:25:57.129Z,100.00
2022-09-17T02:28:40.845Z,100.00
2022-09-17T02:31:08.528Z,100.00
2022-09-17T02:33:38.485Z,100.00
2022-09-17T02:36:05.621Z,100.00
2022-09-17T02:38:32.421Z,100.00
2022-09-17T02:41:18.161Z,100.00
2022-09-17T02:44:09.543Z,100.00
2022-09-17T02:46:57.999Z,100.00
2022-09-17T02:49:37.356Z,100.00
2022-09-17T02:52:23.101Z,100.00
2022-09-17T02:55:16.669Z,100.00
2022-09-17T02:57:58.717Z,99.94
2022-09-17T03:00:28.306Z,100.00
2022-09-17T03:03:33.113Z,100.00
2022-09-17T03:06:00.432Z,99.67
2022-09-17T03:08:34.897Z,99.45
2022-09-17T03:11:02.370Z,99.20
2022-09-17T03:13:28.772Z,99.30
2022-09-17T03:15:55.447Z,98.70
2022-09-17T03:18:22.026Z,98.80
2022-09-17T03:20:48.440Z,98.73
2022-09-17T03:23:15.498Z,99.68
2022-09-17T03:25:42.266Z,98.74
2022-09-17T03:28:10.790Z,98.75
2022-09-17T03:30:38.689Z,98.88
2022-09-17T03:33:05.165Z,99.46
2022-09-17T03:35:31.513Z,99.11
2022-09-17T03:37:58.034Z,99.49
2022-09-17T03:40:24.583Z,99.07
2022-09-17T03:42:51.696Z,99.07
2022-09-17T03:45:18.098Z,98.54
2022-09-17T03:47:44.835Z,99.11
2022-09-17T03:50:11.368Z,98.95
2022-09-17T03:52:38.502Z,99.02
2022-09-17T03:55:05.336Z,99.24
2022-09-17T03:57:31.695Z,99.31
2022-09-17T03:59:58.143Z,98.82
2022-09-17T04:02:24.565Z,99.06
2022-09-17T04:04:53.390Z,99.29
2022-09-17T04:07:19.854Z,98.98
2022-09-17T04:09:46.269Z,98.81
2022-09-17T04:12:12.766Z,99.42
2022-09-17T04:14:39.657Z,99.42
2022-09-17T04:17:06.020Z,98.62
2022-09-17T04:19:32.853Z,99.20
2022-09-17T04:22:00.148Z,98.91
2022-09-17T04:24:28.092Z,98.75
2022-09-17T04:26:54.725Z,99.03
2022-09-17T04:29:21.145Z,98.09
2022-09-17T04:31:47.658Z,97.75
2022-09-17T04:34:14.061Z,97.75
2022-09-17T04:36:40.833Z,97.20
2022-09-17T04:39:07.631Z,96.61
2022-09-17T04:41:34.132Z,96.28
2022-09-17T04:44:00.630Z,96.60
2022-09-17T04:46:30.043Z,96.21
2022-09-17T04:48:56.558Z,95.54
2022-09-17T04:51:22.954Z,95.13
2022-09-17T04:53:49.307Z,94.25
2022-09-17T04:56:15.777Z,93.96
2022-09-17T04:58:42.567Z,93.41
2022-09-17T05:01:09.116Z,93.03
2022-09-17T05:03:35.667Z,93.09
2022-09-17T05:06:02.049Z,93.07
2022-09-17T05:08:28.487Z,92.51
2022-09-17T05:10:54.955Z,92.45
2022-09-17T05:13:21.393Z,92.95
2022-09-17T05:15:47.920Z,92.21
2022-09-17T05:18:14.755Z,91.92
2022-09-17T05:20:41.417Z,91.85
2022-09-17T05:23:08.802Z,91.86
2022-09-17T05:25:35.209Z,92.45
2022-09-17T05:28:02.723Z,92.18
2022-09-17T05:30:30.041Z,91.82
2022-09-17T05:33:04.592Z,90.91
2022-09-17T05:35:33.455Z,91.20
2022-09-17T05:38:05.326Z,90.48
2022-09-17T05:40:33.050Z,90.55
2022-09-17T05:43:04.618Z,89.90
2022-09-17T05:45:33.272Z,90.22
2022-09-17T05:48:02.678Z,90.19
2022-09-17T05:50:30.082Z,90.40
2022-09-17T05:52:56.863Z,89.68
2022-09-17T05:55:24.027Z,89.10
2022-09-17T05:57:52.070Z,89.52
2022-09-17T06:00:18.944Z,89.32
2022-09-17T06:02:45.639Z,89.25
2022-09-17T06:05:12.538Z,89.20
2022-09-17T06:07:39.854Z,89.35
2022-09-17T06:10:08.783Z,89.32
2022-09-17T06:12:38.034Z,89.03
2022-09-17T06:15:05.277Z,89.04
2022-09-17T06:17:36.030Z,89.06
2022-09-17T06:20:04.493Z,88.75
2022-09-17T06:22:31.296Z,88.38
2022-09-17T06:24:57.709Z,87.92
2022-09-17T06:27:24.202Z,88.16
2022-09-17T06:29:50.557Z,87.50
2022-09-17T06:32:17.012Z,87.41
2022-09-17T06:34:44.025Z,87.08
2022-09-17T06:37:10.545Z,87.09
2022-09-17T06:39:37.625Z,86.57
2022-09-17T06:42:04.397Z,86.80
2022-09-17T06:44:32.325Z,86.79
2022-09-17T06:46:58.740Z,86.51
2022-09-17T06:49:25.193Z,87.27
2022-09-17T06:51:51.905Z,86.91
2022-09-17T06:54:18.631Z,86.72
2022-09-17T06:56:47.647Z,85.69
2022-09-17T06:59:14.136Z,85.77
2022-09-17T07:01:40.915Z,85.73
2022-09-17T07:04:07.688Z,86.71
2022-09-17T07:06:34.352Z,84.97
2022-09-17T07:09:00.786Z,84.35
2022-09-17T07:11:29.171Z,84.49
2022-09-17T07:13:56.196Z,85.19
2022-09-17T07:16:23.562Z,85.00
2022-09-17T07:18:50.095Z,84.71
2022-09-17T07:21:16.514Z,84.74
2022-09-17T07:23:42.866Z,84.54
2022-09-17T07:26:14.534Z,85.21
2022-09-17T07:28:44.210Z,83.83
2022-09-17T07:31:16.095Z,83.40
2022-09-17T07:33:43.180Z,83.13
2022-09-17T07:36:15.325Z,83.04
2022-09-17T07:38:41.889Z,82.76
2022-09-17T07:41:13.767Z,82.62
2022-09-17T07:43:41.447Z,81.72
2022-09-17T07:46:18.006Z,79.91
2022-09-17T07:48:46.033Z,78.88
2022-09-17T07:51:21.902Z,78.63
2022-09-17T07:53:51.991Z,78.26
2022-09-17T07:56:18.709Z,77.63
2022-09-17T07:58:45.228Z,77.47
2022-09-17T08:01:13.536Z,77.70
2022-09-17T08:03:40.266Z,77.39
2022-09-17T08:06:09.107Z,77.79
2022-09-17T08:08:36.712Z,75.81
2022-09-17T08:11:08.018Z,75.26
2022-09-17T08:13:34.626Z,75.38
2022-09-17T08:16:15.938Z,74.97
2022-09-17T08:18:44.199Z,74.46
2022-09-17T08:21:13.545Z,73.95
2022-09-17T08:23:42.049Z,73.61
2022-09-17T08:26:13.325Z,73.08
2022-09-17T08:28:40.281Z,73.15
2022-09-17T08:31:08.883Z,72.99
2022-09-17T08:33:39.340Z,71.79
2022-09-17T08:36:08.887Z,69.69
2022-09-17T08:38:39.132Z,69.43
2022-09-17T08:41:11.686Z,68.26
2022-09-17T08:43:45.286Z,69.23
2022-09-17T08:46:12.634Z,70.23
2022-09-17T08:48:50.107Z,68.15
2022-09-17T08:51:54.674Z,69.07
2022-09-17T08:54:33.549Z,67.88
2022-09-17T08:57:15.867Z,67.44
2022-09-17T08:59:50.910Z,67.58
2022-09-17T09:02:41.820Z,68.31
2022-09-17T09:05:17.955Z,67.92
2022-09-17T09:07:52.109Z,67.78
2022-09-17T09:10:27.423Z,65.57
2022-09-17T09:12:55.903Z,65.49
2022-09-17T09:15:47.303Z,65.24
2022-09-17T09:18:21.377Z,66.87
2022-09-17T09:20:49.832Z,65.27
2022-09-17T09:23:48.491Z,64.42
2022-09-17T09:26:20.553Z,63.82
2022-09-17T09:28:56.103Z,62.96
2022-09-17T09:31:41.435Z,63.00
2022-09-17T09:34:10.541Z,62.36
2022-09-17T09:36:38.781Z,62.90
2022-09-17T09:39:17.927Z,61.61
2022-09-17T09:42:26.883Z,62.16
2022-09-17T09:44:53.823Z,61.66
2022-09-17T09:47:32.586Z,59.44
2022-09-17T09:50:09.029Z,59.56
2022-09-17T09:52:48.250Z,59.71
2022-09-17T09:55:36.789Z,59.35
2022-09-17T09:58:17.670Z,57.99
2022-09-17T10:00:44.207Z,58.96
2022-09-17T10:03:19.665Z,57.65
2022-09-17T10:06:02.113Z,56.33
2022-09-17T10:08:31.341Z,55.29
2022-09-17T10:11:02.018Z,55.35
2022-09-17T10:13:31.713Z,55.11
2022-09-17T10:16:16.827Z,53.60
2022-09-17T10:18:44.282Z,52.46
2022-09-17T10:21:21.171Z,53.14
2022-09-17T10:23:48.379Z,52.42
2022-09-17T10:26:27.534Z,50.52
2022-09-17T10:28:56.093Z,50.84
2022-09-17T10:31:23.305Z,52.42
2022-09-17T10:33:57.710Z,52.95
2022-09-17T10:36:42.549Z,52.75
2022-09-17T10:39:44.267Z,52.55
2022-09-17T10:42:18.882Z,52.03
2022-09-17T10:44:58.930Z,52.96
2022-09-17T10:47:29.467Z,51.73
2022-09-17T10:50:00.590Z,52.49
2022-09-17T10:52:47.761Z,52.40
2022-09-17T10:55:26.558Z,51.20
2022-09-17T10:58:16.097Z,50.91
2022-09-17T11:00:53.375Z,51.94
2022-09-17T11:04:02.310Z,51.52
2022-09-17T11:07:03.609Z,51.75
2022-09-17T11:09:51.955Z,52.43
2022-09-17T11:12:42.077Z,52.73
2022-09-17T11:15:23.589Z,52.80
2022-09-17T11:18:04.211Z,53.52
2022-09-17T11:21:04.714Z,54.19
2022-09-17T11:24:00.615Z,54.88
2022-09-17T11:26:45.402Z,54.89
2022-09-17T11:29:41.157Z,55.92
2022-09-17T11:32:29.733Z,56.28
2022-09-17T11:35:08.079Z,56.43
2022-09-17T11:37:48.847Z,55.92
2022-09-17T11:40:23.895Z,55.45
2022-09-17T11:43:00.987Z,55.25
2022-09-17T11:45:32.306Z,55.27
2022-09-17T11:48:16.973Z,54.29
2022-09-17T11:50:50.044Z,52.68
2022-09-17T11:53:35.142Z,52.26
2022-09-17T11:56:10.199Z,51.70
2022-09-17T11:58:49.773Z,53.06
2022-09-17T12:01:26.054Z,52.66
2022-09-17T12:04:02.111Z,53.43
2022-09-17T12:06:39.081Z,53.56
2022-09-17T12:09:20.333Z,53.63
2022-09-17T12:11:58.116Z,54.71
2022-09-17T12:14:36.356Z,54.71
2022-09-17T12:17:04.356Z,55.38
2022-09-17T12:19:55.107Z,55.85
2022-09-17T12:22:25.848Z,55.69
2022-09-17T12:24:54.901Z,62.20
2022-09-17T12:27:30.198Z,72.70
2022-09-17T12:30:09.199Z,78.63
2022-09-17T12:33:07.340Z,80.99
2022-09-17T12:36:04.919Z,82.14
2022-09-17T12:39:06.673Z,83.71
2022-09-17T12:42:02.095Z,84.88
2022-09-17T12:44:31.712Z,84.33
2022-09-17T12:47:21.328Z,83.47
2022-09-17T12:50:11.422Z,83.82
2022-09-17T12:52:55.918Z,82.94
2022-09-17T12:55:30.977Z,82.30
2022-09-17T12:58:27.019Z,81.08
2022-09-17T13:01:07.219Z,81.42
2022-09-17T13:03:42.942Z,81.04
2022-09-17T13:06:28.072Z,79.46
2022-09-17T13:09:33.099Z,79.13
2022-09-17T13:12:15.414Z,79.83
2022-09-17T13:14:55.889Z,78.32
2022-09-17T13:18:00.844Z,78.44
2022-09-17T13:21:02.425Z,77.33
2022-09-17T13:23:45.489Z,79.37
2022-09-17T13:26:17.204Z,80.26
2022-09-17T13:28:49.654Z,82.02
2022-09-17T13:31:44.686Z,82.54
2022-09-17T13:34:17.421Z,81.74
2022-09-17T13:36:47.522Z,82.13
2022-09-17T13:39:35.639Z,84.02
2022-09-17T13:42:14.617Z,84.94
2022-09-17T13:44:50.097Z,85.82
2022-09-17T13:47:25.693Z,87.56
2022-09-17T13:50:04.010Z,88.67
2022-09-17T13:52:59.669Z,89.90
2022-09-17T13:55:40.370Z,90.93
2022-09-17T13:58:12.941Z,91.11
2022-09-17T14:01:03.380Z,91.58
2022-09-17T14:03:44.146Z,91.52
2022-09-17T14:06:11.372Z,92.57
2022-09-17T14:08:45.704Z,92.27
2022-09-17T14:11:21.290Z,92.49
2022-09-17T14:13:57.754Z,91.01
2022-09-17T14:16:50.153Z,90.42
2022-09-17T14:19:16.878Z,90.27
2022-09-17T14:21:57.255Z,90.66
2022-09-17T14:24:25.680Z,88.00
2022-09-17T14:27:11.331Z,88.12
2022-09-17T14:29:50.222Z,86.45
2022-09-17T14:32:22.200Z,86.73
2022-09-17T14:34:49.750Z,86.56
2022-09-17T14:37:20.592Z,85.86
2022-09-17T14:39:48.928Z,84.86
2022-09-17T14:42:22.166Z,85.71
2022-09-17T14:45:00.761Z,85.46
2022-09-17T14:47:28.297Z,84.72
2022-09-17T14:49:55.266Z,84.66
2022-09-17T14:52:32.672Z,84.00
2022-09-17T14:55:20.399Z,83.23
2022-09-17T14:57:51.600Z,82.27
2022-09-17T15:00:22.025Z,81.46
2022-09-17T15:02:55.488Z,82.21
2022-09-17T15:05:23.750Z,82.96
2022-09-17T15:07:50.580Z,83.75
2022-09-17T15:10:22.044Z,82.97
2022-09-17T15:12:50.862Z,82.03
2022-09-17T15:15:23.185Z,81.52
2022-09-17T15:17:51.174Z,82.24
2022-09-17T15:20:28.751Z,82.73
2022-09-17T15:23:04.715Z,82.50
2022-09-17T15:25:32.277Z,83.37
2022-09-17T15:28:04.964Z,82.63
2022-09-17T15:30:31.805Z,82.95
2022-09-17T15:33:02.779Z,83.60
2022-09-17T15:35:33.740Z,83.85
2022-09-17T15:38:22.156Z,84.89
2022-09-17T15:40:49.709Z,84.86
2022-09-17T15:43:29.948Z,84.97
2022-09-17T15:45:58.189Z,84.68
2022-09-17T15:48:27.464Z,85.45
2022-09-17T15:50:59.293Z,85.45
2022-09-17T15:53:27.936Z,85.85
2022-09-17T15:56:13.199Z,87.38
2022-09-17T15:58:42.808Z,87.57
2022-09-17T16:01:18.506Z,88.26
2022-09-17T16:03:44.975Z,88.48
2022-09-17T16:06:25.255Z,88.91
2022-09-17T16:08:57.880Z,89.79
2022-09-17T16:11:26.534Z,90.39
2022-09-17T16:13:55.274Z,91.25
2022-09-17T16:16:33.478Z,91.42
2022-09-17T16:19:00.136Z,91.75
2022-09-17T16:21:26.878Z,91.87
2022-09-17T16:23:54.042Z,92.15
2022-09-17T16:26:23.375Z,91.37
2022-09-17T16:28:53.860Z,92.82
2022-09-17T16:31:21.027Z,92.38
2022-09-17T16:33:52.332Z,92.85
2022-09-17T16:36:19.255Z,91.93
2022-09-17T16:38:45.845Z,92.50
2022-09-17T16:41:13.198Z,92.09
2022-09-17T16:43:40.456Z,92.22
2022-09-17T16:46:12.732Z,92.70
2022-09-17T16:48:41.474Z,92.79
2022-09-17T16:51:12.220Z,93.37
2022-09-17T16:53:40.131Z,94.02
2022-09-17T16:56:09.022Z,93.17
2022-09-17T16:58:36.151Z,92.53
2022-09-17T17:01:28.687Z,93.51
2022-09-17T17:03:56.170Z,93.43
2022-09-17T17:06:22.639Z,93.09
2022-09-17T17:08:49.270Z,90.61
2022-09-17T17:11:16.078Z,89.76
2022-09-17T17:13:43.256Z,89.45
2022-09-17T17:16:17.381Z,89.59
2022-09-17T17:18:44.903Z,90.60
2022-09-17T17:21:13.531Z,90.69
2022-09-17T17:23:40.596Z,90.03
2022-09-17T17:26:06.953Z,89.43
2022-09-17T17:28:35.556Z,89.35
2022-09-17T17:31:04.679Z,90.41
2022-09-17T17:33:31.174Z,90.51
2022-09-17T17:36:07.282Z,89.52
2022-09-17T17:38:35.687Z,89.43
2022-09-17T17:41:03.491Z,89.63
2022-09-17T17:43:30.049Z,89.52
2022-09-17T17:45:56.511Z,89.66
2022-09-17T17:48:22.946Z,89.74
2022-09-17T17:50:53.397Z,90.36
2022-09-17T17:53:22.885Z,90.75
2022-09-17T17:56:00.539Z,91.17
2022-09-17T17:58:33.048Z,91.82
2022-09-17T18:01:00.285Z,90.94
2022-09-17T18:03:26.803Z,91.61
2022-09-17T18:06:00.545Z,92.00
2022-09-17T18:08:28.014Z,92.80
2022-09-17T18:10:56.358Z,93.20
2022-09-17T18:13:24.031Z,93.18
2022-09-17T18:16:02.743Z,93.33
2022-09-17T18:18:35.606Z,93.57
2022-09-17T18:21:07.077Z,93.81
2022-09-17T18:23:36.024Z,94.39
2022-09-17T18:26:04.757Z,94.86
2022-09-17T18:28:33.450Z,95.99
2022-09-17T18:31:09.621Z,95.70
2022-09-17T18:33:36.345Z,95.45
2022-09-17T18:36:05.371Z,94.83
2022-09-17T18:38:32.830Z,94.80
2022-09-17T18:41:04.406Z,94.33
2022-09-17T18:43:32.874Z,95.24
2022-09-17T18:45:59.270Z,95.07
2022-09-17T18:48:25.913Z,94.78
2022-09-17T18:51:07.549Z,94.74
2022-09-17T18:53:36.868Z,94.98
2022-09-17T18:56:10.686Z,94.92
2022-09-17T18:58:37.264Z,94.35
2022-09-17T19:01:07.666Z,94.39
2022-09-17T19:03:35.292Z,94.72
2022-09-17T19:06:04.864Z,94.46
2022-09-17T19:08:31.409Z,94.76
2022-09-17T19:10:58.635Z,94.56
2022-09-17T19:13:25.922Z,94.76
2022-09-17T19:15:53.416Z,93.62
2022-09-17T19:18:20.143Z,93.04
2022-09-17T19:20:46.500Z,91.53
2022-09-17T19:23:13.274Z,90.64
2022-09-17T19:26:17.179Z,87.46
2022-09-17T19:28:43.770Z,83.88
2022-09-17T19:31:12.791Z,83.59
2022-09-17T19:33:39.912Z,82.63
2022-09-17T19:36:12.466Z,80.53
2022-09-17T19:38:45.926Z,80.58
2022-09-17T19:41:18.491Z,79.69
2022-09-17T19:43:45.973Z,79.89
2022-09-17T19:46:13.571Z,79.57
2022-09-17T19:48:47.966Z,79.03
2022-09-17T19:51:15.762Z,79.35
2022-09-17T19:53:42.621Z,79.93
2022-09-17T19:56:14.073Z,79.05
2022-09-17T19:58:41.388Z,79.23
2022-09-17T20:01:08.554Z,78.37
2022-09-17T20:03:35.488Z,79.08
2022-09-17T20:06:05.523Z,78.43
2022-09-17T20:08:32.668Z,79.16
2022-09-17T20:11:07.415Z,79.72
2022-09-17T20:13:34.736Z,79.96
2022-09-17T20:16:10.835Z,79.86
2022-09-17T20:18:37.778Z,80.11
2022-09-17T20:21:09.746Z,80.20
2022-09-17T20:23:36.152Z,80.57
2022-09-17T20:26:03.459Z,80.41
2022-09-17T20:28:29.890Z,80.22
2022-09-17T20:31:07.575Z,80.21
2022-09-17T20:33:34.458Z,81.04
2022-09-17T20:36:02.497Z,80.73
2022-09-17T20:39:10.744Z,80.77
2022-09-17T20:41:17.207Z,81.02
2022-09-17T20:43:46.833Z,80.87
2022-09-17T20:46:13.969Z,81.93
2022-09-17T20:48:41.812Z,82.03
2022-09-17T20:51:15.245Z,82.20
2022-09-17T20:53:42.499Z,82.53
2022-09-17T20:56:14.465Z,82.92
2022-09-17T20:58:48.681Z,82.29
2022-09-17T21:01:21.964Z,82.91
2022-09-17T21:03:51.072Z,82.68
2022-09-17T21:06:26.330Z,83.21
2022-09-17T21:08:55.275Z,83.72
2022-09-17T21:11:23.407Z,83.91
2022-09-17T21:13:50.105Z,83.99
2022-09-17T21:16:16.938Z,83.59
2022-09-17T21:18:43.834Z,84.78
2022-09-17T21:21:16.150Z,84.03
2022-09-17T21:23:43.689Z,84.65
2022-09-17T21:26:35.773Z,85.21
2022-09-17T21:29:02.606Z,85.05
2022-09-17T21:31:32.958Z,85.42
2022-09-17T21:34:02.718Z,85.46
2022-09-17T21:36:32.383Z,84.75
2022-09-17T21:39:02.165Z,84.83
2022-09-17T21:41:29.106Z,84.49
2022-09-17T21:43:56.267Z,84.89
2022-09-17T21:46:25.322Z,85.00
2022-09-17T21:48:57.629Z,85.66
2022-09-17T21:51:37.062Z,85.93
2022-09-17T21:54:06.542Z,86.03
2022-09-17T21:56:33.606Z,86.04
2022-09-17T21:59:02.921Z,87.09
2022-09-17T22:01:33.069Z,86.78
2022-09-17T22:04:01.903Z,87.07
2022-09-17T22:06:31.284Z,86.80
2022-09-17T22:08:59.651Z,87.04
2022-09-17T22:11:31.987Z,87.17
2022-09-17T22:14:05.228Z,87.45
2022-09-17T22:16:33.302Z,87.26
2022-09-17T22:18:59.795Z,87.29
2022-09-17T22:21:28.044Z,87.46
2022-09-17T22:23:56.909Z,88.09
2022-09-17T22:26:24.978Z,88.20
2022-09-17T22:28:52.485Z,88.10
2022-09-17T22:31:19.685Z,88.47
2022-09-17T22:33:49.997Z,88.41
2022-09-17T22:36:19.750Z,87.83
2022-09-17T22:38:48.472Z,88.74
2022-09-17T22:41:17.874Z,88.86
2022-09-17T22:43:44.793Z,89.33
2022-09-17T22:46:12.759Z,89.17
2022-09-17T22:48:41.073Z,88.59
2022-09-17T22:51:07.942Z,88.77
2022-09-17T22:53:36.351Z,88.62
2022-09-17T22:56:05.321Z,89.17
2022-09-17T22:58:32.216Z,88.80
2022-09-17T23:01:04.341Z,89.20
2022-09-17T23:03:31.158Z,89.43
2022-09-17T23:06:02.531Z,89.66
2022-09-17T23:08:29.027Z,90.07
2022-09-17T23:10:56.255Z,89.95
2022-09-17T23:13:22.853Z,89.60
2022-09-17T23:15:49.548Z,89.82
2022-09-17T23:18:16.423Z,89.76
2022-09-17T23:20:42.869Z,90.21
2022-09-17T23:23:10.136Z,90.58
2022-09-17T23:25:36.578Z,90.67
2022-09-17T23:28:02.956Z,90.33
2022-09-17T23:30:29.397Z,90.38
2022-09-17T23:32:56.813Z,90.06
2022-09-17T23:35:24.517Z,90.30
2022-09-17T23:37:50.998Z,90.49
2022-09-17T23:40:18.408Z,90.27
2022-09-17T23:42:45.361Z,90.33
2022-09-17T23:45:12.168Z,90.07
2022-09-17T23:47:39.065Z,90.39
2022-09-17T23:50:05.867Z,90.73
2022-09-17T23:52:32.346Z,91.24
2022-09-17T23:54:58.771Z,90.04
2022-09-17T23:57:25.636Z,90.06
2022-09-17T23:59:52.527Z,90.55
